Time;durP1;ratioP1;P1;durP2;ratioP2;P2;SDS_P1;SDS_P2;PMS_P1;PMS_P2;Temp;Humidity;BMP_temperature;BMP_pressure;BME280_temperature;BME280_humidity;BME280_pressure;Samples;Min_cycle;Max_cycle;Signal;HPM_P1;HPM_P2
2021/12/15 01:27:41;;;;;;;55.95;26.90;;;;;;;1.04;100.00;100451.70;1760608;80;21175;-82
2021/12/15 01:30:51;;;;;;;58.85;28.35;;;;;;;1.04;100.00;100447.66;1769587;81;21282;-82
2021/12/15 01:33:57;;;;;;;60.80;28.77;;;;;;;1.06;100.00;100440.31;1769889;81;21298;-82
2021/12/15 01:37:02;;;;;;;59.23;27.73;;;;;;;1.11;100.00;100443.53;1769783;81;21240;-82
2021/12/15 01:40:07;;;;;;;56.18;27.48;;;;;;;1.16;100.00;100446.75;1769640;81;21298;-82
2021/12/15 01:43:32;;;;;;;57.65;27.42;;;;;;;1.20;100.00;100454.98;1768118;81;21211;-82
2021/12/15 01:49:57;;;;;;;62.88;29.02;;;;;;;1.31;100.00;100450.63;1769803;81;21239;-82
2021/12/15 01:53:03;;;;;;;48.58;26.37;;;;;;;1.34;100.00;100457.15;1768587;81;21385;-82
2021/12/15 01:56:10;;;;;;;50.70;25.45;;;;;;;1.38;100.00;100464.04;1769623;81;21720;-82
2021/12/15 01:59:17;;;;;;;47.13;24.00;;;;;;;1.39;100.00;100461.22;1769286;81;21893;-82
2021/12/15 02:02:23;;;;;;;43.30;23.12;;;;;;;1.44;100.00;100456.34;1769389;81;21180;-82
2021/12/15 02:05:29;;;;;;;53.25;28.02;;;;;;;1.47;100.00;100453.92;1770724;81;21183;-82
2021/12/15 02:08:35;;;;;;;56.02;28.32;;;;;;;1.50;100.00;100459.92;1770658;81;21306;-82
2021/12/15 02:11:40;;;;;;;53.58;28.73;;;;;;;1.55;100.00;100464.97;1769795;81;21329;-83
2021/12/15 02:14:46;;;;;;;55.38;26.45;;;;;;;1.62;100.00;100472.98;1769103;81;21341;-82
2021/12/15 02:17:52;;;;;;;57.50;28.38;;;;;;;1.65;100.00;100472.77;1768326;81;21219;-82
2021/12/15 02:21:02;;;;;;;47.73;26.25;;;;;;;1.62;100.00;100469.43;1768096;81;21837;-82
2021/12/15 02:24:07;;;;;;;47.73;25.48;;;;;;;1.57;100.00;100473.82;1769673;81;22112;-82
2021/12/15 02:27:14;;;;;;;51.83;26.85;;;;;;;1.57;100.00;100476.52;1769702;81;21164;-82
2021/12/15 02:33:51;;;;;;;49.63;25.57;;;;;;;1.56;100.00;100481.54;1765127;81;21932;-82
2021/12/15 02:40:16;;;;;;;51.90;24.07;;;;;;;1.53;100.00;100477.72;1764889;81;21224;-82
2021/12/15 02:43:21;;;;;;;42.95;22.82;;;;;;;1.54;100.00;100476.24;1763963;81;21306;-82
2021/12/15 02:46:27;;;;;;;47.45;24.20;;;;;;;1.54;100.00;100479.42;1763100;81;21326;-82
2021/12/15 02:49:35;;;;;;;38.92;21.17;;;;;;;1.49;100.00;100482.95;1764992;81;21833;-82
2021/12/15 02:52:40;;;;;;;45.10;24.10;;;;;;;1.50;100.00;100479.28;1763493;81;21358;-82
2021/12/15 02:55:45;;;;;;;45.50;25.00;;;;;;;1.46;100.00;100480.52;1763105;81;21168;-82
2021/12/15 02:58:57;;;;;;;44.60;23.98;;;;;;;1.44;100.00;100487.34;1764703;81;21834;-82
2021/12/15 03:02:14;;;;;;;36.48;21.27;;;;;;;1.47;100.00;100484.43;1765538;81;21247;-82
2021/12/15 03:05:23;;;;;;;39.23;21.12;;;;;;;1.52;100.00;100482.25;1765584;81;21251;-82
2021/12/15 03:08:46;;;;;;;55.15;28.00;;;;;;;1.54;100.00;100478.08;1766016;81;21695;-82
2021/12/15 03:18:29;;;;;;;45.90;24.72;;;;;;;1.57;100.00;100468.92;1764972;81;21225;-82
2021/12/15 03:21:34;;;;;;;41.30;21.27;;;;;;;1.56;100.00;100470.75;1765241;81;21797;-82
2021/12/15 03:24:40;;;;;;;47.23;23.45;;;;;;;1.53;100.00;100469.13;1763439;81;21581;-82
2021/12/15 03:37:47;;;;;;;42.85;22.40;;;;;;;1.44;100.00;100464.92;1769803;81;21318;-82
2021/12/15 03:40:54;;;;;;;40.33;21.75;;;;;;;1.41;100.00;100466.03;1770486;81;21274;-82
2021/12/15 03:44:02;;;;;;;39.85;20.10;;;;;;;1.38;100.00;100470.28;1767586;81;21762;-82
2021/12/15 03:47:12;;;;;;;37.28;20.10;;;;;;;1.37;100.00;100467.72;1768526;81;21294;-82
2021/12/15 03:50:20;;;;;;;40.98;23.70;;;;;;;1.35;100.00;100466.95;1768238;81;21886;-82
2021/12/15 03:53:25;;;;;;;35.58;20.85;;;;;;;1.35;100.00;100469.16;1769421;81;21854;-82
2021/12/15 03:56:30;;;;;;;33.50;18.80;;;;;;;1.40;100.00;100471.02;1769636;79;22133;-82
2021/12/15 03:59:41;;;;;;;37.03;21.75;;;;;;;1.40;100.00;100468.81;1769676;81;21180;-82
2021/12/15 04:02:45;;;;;;;45.80;22.27;;;;;;;1.41;100.00;100463.33;1769706;81;22488;-82
2021/12/15 04:05:51;;;;;;;39.95;23.32;;;;;;;1.42;100.00;100456.10;1767915;81;21619;-82
2021/12/15 04:08:57;;;;;;;42.23;24.12;;;;;;;1.44;100.00;100454.14;1769727;81;21905;-82
2021/12/15 04:12:02;;;;;;;37.45;21.62;;;;;;;1.45;100.00;100462.59;1769203;81;21304;-82
2021/12/15 04:18:27;;;;;;;38.25;21.25;;;;;;;1.38;100.00;100455.95;1767495;81;21206;-82
2021/12/15 04:21:32;;;;;;;38.23;20.10;;;;;;;1.33;100.00;100454.09;1755206;80;22113;-82
2021/12/15 04:24:39;;;;;;;31.68;18.12;;;;;;;1.30;100.00;100452.95;1752876;79;21633;-82
2021/12/15 04:27:44;;;;;;;38.35;20.17;;;;;;;1.28;100.00;100453.94;1766617;81;21370;-82
2021/12/15 04:30:54;;;;;;;44.18;24.82;;;;;;;1.28;100.00;100460.67;1769355;81;21341;-82
2021/12/15 04:34:11;;;;;;;41.02;22.60;;;;;;;1.27;100.00;100457.61;1776098;79;21189;-81
2021/12/15 04:37:16;;;;;;;48.45;25.62;;;;;;;1.28;100.00;100466.06;1770842;80;21244;-82
2021/12/15 04:40:23;;;;;;;42.60;22.17;;;;;;;1.30;100.00;100467.78;1770511;81;21220;-82
2021/12/15 04:43:30;;;;;;;42.50;23.35;;;;;;;1.28;100.00;100469.25;1770597;81;21263;-82
2021/12/15 04:46:38;;;;;;;37.48;20.08;;;;;;;1.26;100.00;100466.64;1704323;84;22108;-82
2021/12/15 04:49:50;;;;;;;36.38;19.02;;;;;;;1.25;100.00;100475.71;1704738;84;21323;-82
2021/12/15 04:52:59;;;;;;;35.00;18.02;;;;;;;1.22;100.00;100475.95;1697140;84;21225;-82
2021/12/15 04:56:03;;;;;;;31.15;18.73;;;;;;;1.21;100.00;100472.00;1763764;81;21157;-82
2021/12/15 04:59:08;;;;;;;35.95;19.30;;;;;;;1.25;100.00;100481.09;1770498;81;21787;-82
2021/12/15 05:02:07;;;;;;;32.05;18.62;;;;;;;1.28;100.00;100470.11;1783351;79;21943;-82
2021/12/15 05:05:13;;;;;;;33.13;19.50;;;;;;;1.28;100.00;100464.72;1791640;79;21280;-82
2021/12/15 05:08:18;;;;;;;38.53;20.52;;;;;;;1.31;100.00;100462.76;1791500;79;21854;-82
2021/12/15 05:11:24;;;;;;;39.80;20.48;;;;;;;1.33;100.00;100481.04;1770639;81;21275;-82
2021/12/15 05:14:30;;;;;;;35.45;18.35;;;;;;;1.31;100.00;100482.48;1770614;81;21291;-82
2021/12/15 05:17:36;;;;;;;41.90;22.20;;;;;;;1.26;100.00;100485.52;1770234;81;21625;-82
2021/12/15 05:20:46;;;;;;;34.75;18.70;;;;;;;1.26;100.00;100495.44;1769499;81;21886;-82
2021/12/15 05:23:55;;;;;;;32.80;18.02;;;;;;;1.20;100.00;100489.16;1769023;81;21829;-82
2021/12/15 05:26:58;;;;;;;31.93;16.95;;;;;;;1.10;100.00;100498.39;1769753;81;21357;-82
2021/12/15 05:30:04;;;;;;;32.60;16.95;;;;;;;1.02;100.00;100484.61;1769513;81;21515;-82
2021/12/15 05:33:09;;;;;;;30.20;17.15;;;;;;;1.04;100.00;100487.22;1768573;80;21789;-82
2021/12/15 05:36:14;;;;;;;26.45;15.05;;;;;;;1.04;100.00;100497.50;1770514;79;21309;-82
2021/12/15 05:39:19;;;;;;;32.05;17.12;;;;;;;0.99;100.00;100494.28;1774491;79;21263;-82
2021/12/15 05:42:25;;;;;;;27.98;15.78;;;;;;;0.99;100.00;100495.63;1779813;79;21677;-82
2021/12/15 05:45:33;;;;;;;29.07;15.95;;;;;;;0.99;100.00;100491.59;1726470;83;21307;-82
2021/12/15 05:48:39;;;;;;;29.48;16.55;;;;;;;0.99;100.00;100497.84;1773383;79;21836;-87
2021/12/15 05:51:46;;;;;;;26.48;15.10;;;;;;;1.01;100.00;100499.06;1777742;79;21243;-81
2021/12/15 05:54:54;;;;;;;23.50;12.98;;;;;;;1.01;100.00;100503.10;1770969;79;21316;-83
2021/12/15 05:58:00;;;;;;;24.72;14.10;;;;;;;1.00;100.00;100508.98;1772188;79;21285;-83
2021/12/15 06:01:09;;;;;;;18.65;11.12;;;;;;;1.00;100.00;100508.12;1774897;79;21224;-83
2021/12/15 06:04:15;;;;;;;22.55;12.05;;;;;;;1.01;100.00;100510.69;1772186;79;21269;-83
2021/12/15 06:07:25;;;;;;;18.35;12.05;;;;;;;1.01;100.00;100503.10;1772479;79;21263;-84
2021/12/15 06:10:35;;;;;;;18.85;12.03;;;;;;;1.01;100.00;100516.08;1771189;79;21201;-84
2021/12/15 06:13:47;;;;;;;18.90;11.55;;;;;;;0.99;100.00;100512.65;1773449;79;21304;-83
2021/12/15 06:16:51;;;;;;;18.17;11.65;;;;;;;0.97;100.00;100511.87;1772053;79;22270;-87
2021/12/15 06:19:59;;;;;;;17.27;10.93;;;;;;;0.98;100.00;100507.34;1750847;79;21276;-83
2021/12/15 06:23:17;;;;;;;16.75;11.15;;;;;;;0.97;100.00;100525.84;1762463;79;21193;-85
2021/12/15 06:26:20;;;;;;;17.65;11.68;;;;;;;0.98;100.00;100515.43;1764872;79;21237;-82
2021/12/15 06:29:29;;;;;;;14.75;10.08;;;;;;;0.99;100.00;100512.65;1691225;82;21246;-84
2021/12/15 06:32:33;;;;;;;15.35;10.48;;;;;;;1.04;100.00;100521.75;1691109;83;21982;-82
2021/12/15 06:39:30;;;;;;;15.13;10.60;;;;;;;1.15;100.00;100525.86;1769098;79;21755;-83
2021/12/15 06:42:38;;;;;;;17.73;11.12;;;;;;;1.23;100.00;100522.14;1766011;79;21244;-82
2021/12/15 06:59:17;;;;;;;13.95;9.93;;;;;;;1.22;100.00;100502.91;1764557;79;21226;-80
2021/12/15 07:02:27;;;;;;;14.90;10.55;;;;;;;1.22;100.00;100504.25;1765893;79;21208;-81
2021/12/15 07:05:39;;;;;;;13.98;10.68;;;;;;;1.22;100.00;100500.21;1751823;79;21157;-81
2021/12/15 07:08:48;;;;;;;13.45;9.75;;;;;;;1.25;100.00;100503.15;1762888;79;21161;-81
2021/12/15 07:11:55;;;;;;;13.50;9.35;;;;;;;1.27;100.00;100502.08;1770653;79;21858;-83
2021/12/15 07:15:08;;;;;;;15.10;9.25;;;;;;;1.33;100.00;100510.20;1768989;79;21178;-83
2021/12/15 07:18:27;;;;;;;14.90;9.63;;;;;;;1.34;100.00;100519.14;1767978;79;21216;-83
2021/12/15 07:22:08;;;;;;;15.68;9.78;;;;;;;1.34;100.00;100522.69;1744329;79;21165;-82
2021/12/15 07:25:02;;;;;;;13.78;10.15;;;;;;;1.35;100.00;100514.97;1765698;79;21153;-83
2021/12/15 07:28:09;;;;;;;14.00;10.45;;;;;;;1.34;100.00;100522.69;1767466;79;21742;-82
2021/12/15 07:31:16;;;;;;;13.78;9.55;;;;;;;1.38;100.00;100520.64;1765931;79;21218;-83
2021/12/15 07:34:21;;;;;;;12.93;8.53;;;;;;;1.42;100.00;100541.01;1764743;79;21164;-83
2021/12/15 07:37:26;;;;;;;12.70;9.03;;;;;;;1.45;100.00;100523.24;1767422;79;21804;-83
2021/12/15 07:40:33;;;;;;;12.63;9.03;;;;;;;1.47;100.00;100524.87;1768631;79;21169;-84
2021/12/15 07:43:39;;;;;;;12.93;9.15;;;;;;;1.51;100.00;100525.02;1764547;79;21208;-83
2021/12/15 07:46:51;;;;;;;16.97;9.70;;;;;;;1.54;100.00;100519.87;1762233;79;21220;-83
2021/12/15 07:50:08;;;;;;;17.02;9.28;;;;;;;1.58;100.00;100515.12;1713403;81;21210;-82
2021/12/15 07:53:18;;;;;;;14.45;8.50;;;;;;;1.65;100.00;100513.70;1714883;81;21307;-83
2021/12/15 07:56:26;;;;;;;13.35;8.80;;;;;;;1.69;100.00;100525.46;1767988;79;21225;-82
2021/12/15 07:59:32;;;;;;;14.30;9.75;;;;;;;1.70;100.00;100516.91;1770250;79;21153;-82
2021/12/15 08:02:40;;;;;;;12.10;8.55;;;;;;;1.71;100.00;100520.84;1757648;79;21301;-82
2021/12/15 08:05:46;;;;;;;10.32;7.92;;;;;;;1.75;100.00;100526.38;1753694;79;21220;-83
2021/12/15 08:08:56;;;;;;;9.73;7.72;;;;;;;1.77;100.00;100526.25;1722579;80;21168;-83
2021/12/15 08:12:03;;;;;;;11.28;7.90;;;;;;;1.77;100.00;100524.91;1704675;81;21545;-83
2021/12/15 08:15:11;;;;;;;9.83;7.25;;;;;;;1.76;100.00;100536.19;1752044;79;21572;-82
2021/12/15 08:18:29;;;;;;;13.88;8.10;;;;;;;1.81;100.00;100522.84;1769198;79;22186;-82
2021/12/15 08:21:36;;;;;;;11.53;7.40;;;;;;;1.85;100.00;100521.15;1767095;79;21169;-82
2021/12/15 08:24:42;;;;;;;9.80;7.03;;;;;;;1.86;100.00;100512.56;1767857;79;21300;-81
2021/12/15 08:27:51;;;;;;;9.68;6.55;;;;;;;1.89;100.00;100506.95;1765384;79;21186;-81
2021/12/15 08:31:06;;;;;;;9.10;6.60;;;;;;;1.92;100.00;100502.66;1710417;82;21511;-81
2021/12/15 08:34:19;;;;;;;9.68;6.37;;;;;;;1.91;100.00;100510.38;1680880;82;21181;-81
2021/12/15 08:37:27;;;;;;;9.60;7.22;;;;;;;1.89;100.00;100506.46;1662658;82;21543;-80
2021/12/15 08:40:40;;;;;;;29.37;8.60;;;;;;;1.89;100.00;100511.86;1725042;80;21176;-82
2021/12/15 08:43:47;;;;;;;11.95;7.53;;;;;;;1.91;100.00;100503.14;1662905;83;21220;-82
2021/12/15 08:46:54;;;;;;;9.18;7.05;;;;;;;1.93;100.00;100503.02;1672201;84;21196;-83
2021/12/15 08:50:02;;;;;;;11.63;8.58;;;;;;;1.94;100.00;100499.37;1675433;82;21273;-83
2021/12/15 08:53:10;;;;;;;13.03;8.15;;;;;;;1.95;100.00;100507.83;1738305;80;22286;-83
2021/12/15 08:56:18;;;;;;;12.88;8.18;;;;;;;1.94;100.00;100506.11;1735751;80;22163;-83
2021/12/15 08:59:25;;;;;;;10.03;7.45;;;;;;;1.91;100.00;100527.91;1682965;82;21220;-83
2021/12/15 09:02:33;;;;;;;11.53;7.67;;;;;;;1.88;100.00;100497.11;1642465;84;21249;-82
2021/12/15 09:05:51;;;;;;;10.08;8.40;;;;;;;1.81;100.00;100494.52;1676794;83;21310;-82
2021/12/15 09:09:09;;;;;;;12.15;8.70;;;;;;;1.81;100.00;100490.48;1673771;83;21318;-83
2021/12/15 09:12:26;;;;;;;11.75;9.23;;;;;;;1.82;100.00;100484.95;1681403;83;21746;-82
2021/12/15 09:15:37;;;;;;;11.78;8.33;;;;;;;1.83;100.00;100489.86;1733892;80;21256;-83
2021/12/15 09:18:45;;;;;;;11.53;8.65;;;;;;;1.83;100.00;100487.16;1735096;80;21292;-83
2021/12/15 09:22:01;;;;;;;10.63;7.55;;;;;;;1.81;100.00;100479.69;1658647;84;21244;-83
2021/12/15 09:25:14;;;;;;;12.58;9.48;;;;;;;1.82;100.00;100484.09;1704945;81;21164;-83
2021/12/15 09:28:25;;;;;;;13.58;9.53;;;;;;;1.79;100.00;100487.42;1725117;80;21218;-85
2021/12/15 09:31:36;;;;;;;12.05;8.75;;;;;;;1.81;100.00;100474.30;1734203;80;21188;-83
2021/12/15 09:34:43;;;;;;;15.68;9.90;;;;;;;1.82;100.00;100480.05;1668835;84;22883;-82
2021/12/15 09:37:52;;;;;;;14.58;10.30;;;;;;;1.80;100.00;100482.88;1744445;80;21176;-82
2021/12/15 09:41:04;;;;;;;14.20;9.80;;;;;;;1.79;100.00;100475.28;1749898;80;21311;-83
2021/12/15 09:44:16;;;;;;;12.00;9.30;;;;;;;1.86;100.00;100468.06;1745732;81;21347;-82
2021/12/15 09:47:42;;;;;;;11.55;7.60;;;;;;;1.93;100.00;100466.14;1748179;80;21339;-83
2021/12/15 09:57:26;;;;;;;12.58;7.87;;;;;;;1.99;100.00;100463.45;1747527;80;21329;-82
2021/12/15 10:04:17;;;;;;;10.35;7.47;;;;;;;1.98;100.00;100468.48;1752753;80;21948;-82
2021/12/15 10:20:44;;;;;;;9.98;7.55;;;;;;;1.97;100.00;100459.50;1742509;79;22373;-81
2021/12/15 10:23:58;;;;;;;11.40;8.88;;;;;;;1.95;100.00;100453.87;1731114;80;21723;-83
2021/12/15 10:27:14;;;;;;;11.95;8.43;;;;;;;1.95;100.00;100468.22;1719288;81;21831;-82
2021/12/15 10:30:33;;;;;;;10.70;7.47;;;;;;;1.95;100.00;100455.22;1735438;80;21283;-83
2021/12/15 10:34:07;;;;;;;10.50;8.13;;;;;;;1.92;100.00;100453.60;1738243;79;21216;-82
2021/12/15 10:36:57;;;;;;;9.20;7.47;;;;;;;1.90;100.00;100454.72;1739581;80;21594;-82
2021/12/15 10:40:25;;;;;;;12.93;8.45;;;;;;;1.90;100.00;100462.31;1711843;82;21264;-83
2021/12/15 10:43:40;;;;;;;12.73;8.83;;;;;;;1.91;100.00;100455.08;1718946;82;21366;-84
2021/12/15 10:46:51;;;;;;;11.57;8.30;;;;;;;1.89;100.00;100449.81;1712200;82;21275;-83
2021/12/15 10:49:59;;;;;;;12.35;8.78;;;;;;;1.88;100.00;100459.34;1708631;82;21228;-83
2021/12/15 10:53:07;;;;;;;11.48;8.08;;;;;;;1.86;100.00;100465.36;1734938;81;22069;-86
2021/12/15 10:56:21;;;;;;;13.53;9.10;;;;;;;1.86;100.00;100461.31;1767966;79;21287;-83
2021/12/15 10:59:36;;;;;;;17.20;11.73;;;;;;;1.84;100.00;100466.84;1742605;79;21189;-83
2021/12/15 11:02:47;;;;;;;12.73;8.35;;;;;;;1.82;100.00;100451.24;1737591;79;21580;-82
2021/12/15 11:05:54;;;;;;;11.38;8.15;;;;;;;1.83;100.00;100448.05;1767714;79;21157;-82
2021/12/15 11:09:25;;;;;;;11.38;8.10;;;;;;;1.83;100.00;100451.61;1768547;79;22281;-82
2021/12/15 11:12:38;;;;;;;10.68;7.72;;;;;;;1.83;100.00;100456.14;1686207;82;21176;-83
2021/12/15 11:15:49;;;;;;;9.60;7.80;;;;;;;1.88;100.00;100455.30;1702071;82;21173;-83
2021/12/15 11:18:54;;;;;;;10.70;7.62;;;;;;;1.91;100.00;100449.69;1770484;79;21292;-83
2021/12/15 11:22:00;;;;;;;11.55;8.88;;;;;;;1.91;100.00;100451.03;1771074;79;21211;-81
2021/12/15 11:25:08;;;;;;;12.35;8.78;;;;;;;1.94;100.00;100469.20;1768737;79;21190;-83
2021/12/15 11:28:19;;;;;;;17.10;8.93;;;;;;;1.95;100.00;100456.08;1767915;79;21248;-85
2021/12/15 11:31:37;;;;;;;11.55;8.98;;;;;;;2.00;100.00;100461.13;1771087;79;21181;-83
2021/12/15 11:34:44;;;;;;;11.08;8.25;;;;;;;2.01;100.00;100455.59;1772620;79;21165;-83
2021/12/15 11:37:58;;;;;;;11.93;7.70;;;;;;;2.01;100.00;100452.04;1760534;79;21160;-83
2021/12/15 11:41:09;;;;;;;10.25;7.75;;;;;;;1.97;100.00;100443.81;1743300;79;21432;-82
2021/12/15 11:44:19;;;;;;;11.65;8.55;;;;;;;1.95;100.00;100445.78;1769415;79;22084;-82
2021/12/15 11:47:26;;;;;;;11.75;8.50;;;;;;;1.92;100.00;100440.61;1772393;79;21300;-82
2021/12/15 11:50:38;;;;;;;12.50;8.60;;;;;;;1.91;100.00;100446.98;1762802;79;22332;-82
2021/12/15 11:53:58;;;;;;;9.10;7.33;;;;;;;1.90;100.00;100446.63;1743562;80;21221;-83
2021/12/15 11:57:18;;;;;;;10.08;8.25;;;;;;;1.88;100.00;100456.65;1764534;79;21357;-83
2021/12/15 12:00:30;;;;;;;9.83;7.53;;;;;;;1.89;100.00;100461.09;1718573;82;21359;-81
2021/12/15 12:03:39;;;;;;;9.90;7.17;;;;;;;1.92;100.00;100466.23;1776201;79;21631;-82
2021/12/15 12:06:58;;;;;;;9.40;6.90;;;;;;;1.94;100.00;100460.25;1772377;79;21176;-82
2021/12/15 12:10:49;;;;;;;11.05;7.75;;;;;;;1.93;100.00;100462.09;1756405;79;21280;-82
2021/12/15 12:14:03;;;;;;;9.25;6.78;;;;;;;1.91;100.00;100469.92;1741301;79;22474;-83
2021/12/15 12:17:19;;;;;;;9.68;7.87;;;;;;;1.90;100.00;100477.16;1768795;79;21216;-83
2021/12/15 12:20:34;;;;;;;12.03;8.20;;;;;;;1.91;100.00;100474.82;1765430;79;21176;-83
2021/12/15 12:23:45;;;;;;;8.63;6.65;;;;;;;1.94;100.00;100470.55;1767576;79;22276;-82
2021/12/15 12:26:48;;;;;;;13.40;7.87;;;;;;;1.98;100.00;100473.39;1764972;79;21169;-82
2021/12/15 12:29:59;;;;;;;8.85;7.50;;;;;;;2.01;100.00;100470.44;1767837;79;21183;-83
2021/12/15 12:33:08;;;;;;;10.72;7.17;;;;;;;2.02;100.00;100468.13;1763851;79;21180;-83
2021/12/15 12:36:26;;;;;;;8.83;6.72;;;;;;;2.05;100.00;100467.02;1762911;79;21267;-83
2021/12/15 12:39:40;;;;;;;8.00;6.83;;;;;;;2.07;100.00;100459.69;1758669;79;21185;-82
2021/12/15 12:42:47;;;;;;;11.95;8.13;;;;;;;2.08;100.00;100472.19;1768038;79;21306;-83
2021/12/15 12:46:15;;;;;;;9.98;7.60;;;;;;;2.08;100.00;100473.54;1772158;79;21432;-83
2021/12/15 12:59:32;;;;;;;11.35;8.33;;;;;;;2.01;100.00;100470.44;1774387;79;21275;-82
2021/12/15 13:02:48;;;;;;;10.58;8.35;;;;;;;1.99;100.00;100474.25;1736029;79;21216;-83
2021/12/15 13:06:03;;;;;;;17.20;13.65;;;;;;;1.95;100.00;100491.64;1757605;79;21960;-82
2021/12/15 13:09:16;;;;;;;21.82;16.02;;;;;;;1.94;100.00;100483.18;1773784;79;21283;-81
2021/12/15 13:12:39;;;;;;;24.50;17.52;;;;;;;1.93;100.00;100485.48;1717844;82;21287;-83
2021/12/15 13:15:44;;;;;;;20.92;15.40;;;;;;;1.91;100.00;100482.05;1771461;79;21161;-82
2021/12/15 13:19:01;;;;;;;12.95;10.63;;;;;;;1.89;100.00;100484.02;1768874;79;21811;-82
2021/12/15 13:28:55;;;;;;;13.35;8.85;;;;;;;1.96;100.00;100494.70;1773776;79;21264;-82
2021/12/15 13:32:10;;;;;;;9.85;8.75;;;;;;;1.95;100.00;100499.73;1771293;79;22359;-81
2021/12/15 13:35:15;;;;;;;11.38;9.13;;;;;;;1.90;100.00;100500.08;1771153;79;21220;-82
2021/12/15 13:38:45;;;;;;;11.22;10.03;;;;;;;1.90;100.00;100510.88;1730463;79;21404;-81
2021/12/15 13:42:08;;;;;;;;;;;;;;;1.91;100.00;100534.66;1771516;79;21324;-82
2021/12/15 13:45:09;;;;;;;11.65;9.85;;;;;;;1.90;100.00;100519.45;1761217;80;20310;-82
2021/12/15 13:48:14;;;;;;;15.72;12.05;;;;;;;1.88;100.00;100523.59;1754836;80;21210;-81
2021/12/15 13:51:20;;;;;;;17.92;14.00;;;;;;;1.89;100.00;100521.79;1756715;80;22319;-81
2021/12/15 13:54:43;;;;;;;17.57;13.10;;;;;;;1.88;100.00;100533.53;1756934;80;21740;-81
2021/12/15 13:58:18;;;;;;;14.55;10.98;;;;;;;1.85;100.00;100520.30;1755241;80;21173;-81
2021/12/15 14:01:23;;;;;;;13.25;10.48;;;;;;;1.84;100.00;100524.83;1689790;82;21342;-83
2021/12/15 14:05:07;;;;;;;13.15;9.20;;;;;;;1.86;100.00;100524.21;1709017;82;21387;-82
2021/12/15 14:08:17;;;;;;;9.65;8.50;;;;;;;1.90;100.00;100528.90;1695640;83;21811;-82
2021/12/15 14:11:32;;;;;;;11.05;8.78;;;;;;;1.89;100.00;100529.39;1763769;80;21138;-82
2021/12/15 14:14:37;;;;;;;10.75;8.08;;;;;;;1.93;100.00;100532.23;1766387;80;21240;-82
2021/12/15 14:17:42;;;;;;;10.18;8.40;;;;;;;1.94;100.00;100533.09;1760266;80;22018;-81
2021/12/15 14:21:18;;;;;;;10.95;8.53;;;;;;;1.92;100.00;100535.02;1761922;80;21530;-82
2021/12/15 14:24:26;;;;;;;9.85;8.70;;;;;;;1.91;100.00;100532.81;1765829;80;21217;-82
2021/12/15 14:27:33;;;;;;;11.80;8.75;;;;;;;1.92;100.00;100534.53;1762093;80;21565;-82
2021/12/15 14:30:38;;;;;;;11.85;9.25;;;;;;;1.90;100.00;100542.39;1768239;80;21250;-82
2021/12/15 14:33:54;;;;;;;9.80;7.55;;;;;;;1.90;100.00;100545.09;1763824;80;21213;-82
2021/12/15 14:37:02;;;;;;;10.53;7.85;;;;;;;1.90;100.00;100553.17;1765380;80;21296;-82
2021/12/15 14:40:08;;;;;;;9.33;7.67;;;;;;;1.89;100.00;100558.20;1762896;80;21295;-82
2021/12/15 14:43:12;;;;;;;9.33;7.65;;;;;;;1.87;100.00;100566.39;1762845;79;21669;-82
2021/12/15 14:46:32;;;;;;;11.80;8.58;;;;;;;1.88;100.00;100575.34;1775782;79;21857;-82
2021/12/15 14:49:46;;;;;;;14.53;8.73;;;;;;;1.88;100.00;100573.50;1781375;79;22388;-82
2021/12/15 14:53:03;;;;;;;14.93;8.23;;;;;;;1.87;100.00;100573.63;1769697;81;21263;-82
2021/12/15 14:56:08;;;;;;;10.63;8.73;;;;;;;1.85;100.00;100579.14;1770268;81;21316;-82
2021/12/15 14:59:13;;;;;;;11.78;9.03;;;;;;;1.87;100.00;100595.20;1770133;81;21834;-82
2021/12/15 15:02:25;;;;;;;12.25;9.58;;;;;;;1.87;100.00;100593.37;1770166;81;21652;-82
2021/12/15 15:05:36;;;;;;;18.67;13.40;;;;;;;1.87;100.00;100607.34;1771759;81;21184;-82
2021/12/15 15:08:45;;;;;;;19.35;12.82;;;;;;;1.90;100.00;100600.38;1770602;81;21764;-82
2021/12/15 15:12:19;;;;;;;14.90;11.12;;;;;;;1.89;100.00;100602.22;1770979;81;21259;-82
2021/12/15 15:15:36;;;;;;;14.60;9.98;;;;;;;1.87;100.00;100600.11;1771850;81;21259;-82
2021/12/15 15:18:44;;;;;;;11.95;8.83;;;;;;;1.83;100.00;100602.66;1771800;81;21295;-82
2021/12/15 15:21:49;;;;;;;12.28;9.10;;;;;;;1.81;100.00;100590.27;1771842;81;21283;-82
2021/12/15 15:24:54;;;;;;;12.33;8.43;;;;;;;1.79;100.00;100595.80;1771865;81;21263;-82
2021/12/15 15:28:02;;;;;;;12.90;9.35;;;;;;;1.78;100.00;100594.91;1787747;80;21252;-82
2021/12/15 15:31:10;;;;;;;14.45;9.40;;;;;;;1.78;100.00;100608.39;1787820;80;21248;-82
2021/12/15 15:34:15;;;;;;;14.93;9.50;;;;;;;1.82;100.00;100614.92;1708906;84;21158;-82
2021/12/15 15:37:35;;;;;;;14.53;9.10;;;;;;;1.81;100.00;100614.06;1790336;80;21252;-82
2021/12/15 15:40:46;;;;;;;10.82;7.35;;;;;;;1.82;100.00;100618.47;1790585;80;21245;-82
2021/12/15 15:43:57;;;;;;;11.57;8.10;;;;;;;1.84;100.00;100618.38;1709790;84;21177;-82
2021/12/15 15:47:01;;;;;;;12.50;8.58;;;;;;;1.84;100.00;100616.55;1788106;80;21186;-82
2021/12/15 15:50:10;;;;;;;12.00;7.83;;;;;;;1.83;100.00;100599.95;1708408;84;21803;-82
2021/12/15 15:53:16;;;;;;;14.38;9.88;;;;;;;1.81;100.00;100597.02;1785435;80;21261;-82
2021/12/15 15:56:25;;;;;;;14.30;9.70;;;;;;;1.80;100.00;100596.16;1707846;84;22435;-82
2021/12/15 15:59:30;;;;;;;18.50;13.40;;;;;;;1.79;100.00;100590.40;1736732;82;21161;-82
2021/12/15 16:02:35;;;;;;;22.65;13.98;;;;;;;1.81;100.00;100585.73;1738461;82;21261;-82
2021/12/15 16:05:40;;;;;;;18.23;13.48;;;;;;;1.83;100.00;100586.97;1787943;80;21245;-82
2021/12/15 16:08:48;;;;;;;20.00;12.55;;;;;;;1.83;100.00;100584.27;1709219;84;21279;-82
2021/12/15 16:11:56;;;;;;;18.40;11.70;;;;;;;1.79;100.00;100585.86;1723458;83;21364;-82
2021/12/15 16:15:03;;;;;;;19.15;12.37;;;;;;;1.75;100.00;100603.24;1700254;84;21178;-82
2021/12/15 16:18:08;;;;;;;21.23;13.95;;;;;;;1.70;100.00;100616.20;1787315;80;21189;-82
2021/12/15 16:22:50;;;;;;;20.55;12.65;;;;;;;1.67;100.00;100617.77;1787695;80;21677;-82
2021/12/15 16:24:27;;;;;;;19.62;13.20;;;;;;;1.68;100.00;100624.02;1787758;80;21158;-82
2021/12/15 16:27:51;;;;;;;15.83;11.90;;;;;;;1.66;100.00;100641.67;1707010;84;21273;-82
2021/12/15 16:31:02;;;;;;;20.65;13.72;;;;;;;1.65;100.00;100647.19;1729088;83;21238;-82
2021/12/15 16:34:08;;;;;;;21.35;13.70;;;;;;;1.63;100.00;100644.58;1709368;84;21348;-82
2021/12/15 16:37:17;;;;;;;21.90;11.25;;;;;;;1.61;100.00;100651.07;1728998;83;21169;-82
2021/12/15 16:40:32;;;;;;;23.10;13.18;;;;;;;1.61;100.00;100651.07;1708111;84;21177;-82
2021/12/15 16:43:31;;;;;;;24.30;15.25;;;;;;;1.61;100.00;100651.93;1716353;82;21269;-82
2021/12/15 16:47:04;;;;;;;23.77;13.83;;;;;;;1.62;100.00;100652.30;1704694;84;21974;-82
2021/12/15 16:50:14;;;;;;;24.07;13.43;;;;;;;1.60;100.00;100654.25;1741736;82;21276;-82
2021/12/15 16:53:20;;;;;;;30.97;15.48;;;;;;;1.61;100.00;100661.86;1773449;80;21700;-82
2021/12/15 16:56:38;;;;;;;23.95;12.13;;;;;;;1.59;100.00;100663.78;1773352;79;21256;-82
2021/12/15 16:59:49;;;;;;;19.82;11.95;;;;;;;1.61;100.00;100672.64;1778101;79;21928;-82
2021/12/15 17:03:02;;;;;;;25.90;14.13;;;;;;;1.62;100.00;100676.56;1777329;79;21260;-82
2021/12/15 17:06:08;;;;;;;22.75;13.08;;;;;;;1.65;100.00;100676.84;1776056;79;21313;-82
2021/12/15 17:09:15;;;;;;;20.40;12.15;;;;;;;1.69;100.00;100680.53;1779044;79;21182;-82
2021/12/15 17:12:28;;;;;;;19.60;12.10;;;;;;;1.73;100.00;100680.69;1781338;79;21283;-82
2021/12/15 17:18:52;;;;;;;28.85;12.65;;;;;;;1.75;100.00;100690.04;1773310;79;21351;-82
2021/12/15 17:21:57;;;;;;;21.57;11.05;;;;;;;1.74;100.00;100691.88;1770879;79;21843;-81
2021/12/15 17:25:01;;;;;;;18.73;11.40;;;;;;;1.75;100.00;100696.29;1753802;80;21322;-82
2021/12/15 17:28:19;;;;;;;23.73;12.78;;;;;;;1.71;100.00;100697.48;1768314;79;21887;-81